createdAt,value
2018-06-30T00:00:26.521Z,94
2018-06-30T00:01:30.501Z,94
2018-06-30T00:02:31.471Z,94
2018-06-30T00:03:34.795Z,94
2018-06-30T00:04:29.911Z,94
2018-06-30T00:05:33.670Z,94
2018-06-30T00:07:32.945Z,94
2018-06-30T00:08:27.965Z,94
2018-06-30T00:09:34.538Z,94
2018-06-30T00:10:30.902Z,94
2018-06-30T00:11:30.181Z,94
2018-06-30T00:12:39.686Z,94
2018-06-30T00:13:27.559Z,94
2018-06-30T00:14:26.588Z,95
2018-06-30T00:15:28.054Z,95
2018-06-30T00:16:47.669Z,95
2018-06-30T00:17:34.221Z,95
2018-06-30T00:18:32.508Z,95
2018-06-30T00:19:34.826Z,95
2018-06-30T00:20:30.726Z,95
2018-06-30T00:21:30.873Z,95
2018-06-30T00:22:32.472Z,95
2018-06-30T00:23:37.193Z,95
2018-06-30T00:24:26.715Z,95
2018-06-30T00:25:27.563Z,95
2018-06-30T00:26:27.974Z,95
2018-06-30T00:27:26.791Z,95
2018-06-30T00:28:26.599Z,95
2018-06-30T00:29:36.828Z,95
2018-06-30T00:30:26.595Z,95
2018-06-30T00:31:26.671Z,95
2018-06-30T00:32:26.664Z,95
2018-06-30T00:33:26.552Z,95
2018-06-30T00:34:26.657Z,95
2018-06-30T00:35:26.667Z,95
2018-06-30T00:36:50.096Z,95
2018-06-30T00:37:26.849Z,95
2018-06-30T00:38:31.575Z,95
2018-06-30T00:41:32.592Z,95
2018-06-30T00:42:32.889Z,95
2018-06-30T00:43:34.008Z,95
2018-06-30T00:44:32.756Z,95
2018-06-30T00:45:32.589Z,95
2018-06-30T00:46:32.668Z,95
2018-06-30T00:47:45.740Z,95
2018-06-30T00:48:36.070Z,95
2018-06-30T00:49:32.948Z,95
2018-06-30T00:50:32.843Z,95
2018-06-30T00:52:56.764Z,95
2018-06-30T00:53:46.939Z,95
2018-06-30T00:54:46.083Z,95
2018-06-30T00:55:45.425Z,95
2018-06-30T00:56:53.941Z,95
2018-06-30T00:57:46.821Z,96
2018-06-30T00:59:12.915Z,96
2018-06-30T00:59:52.988Z,95
2018-06-30T01:01:56.067Z,95
2018-06-30T01:02:51.441Z,95
2018-06-30T01:04:04.993Z,95
2018-06-30T01:04:45.616Z,95
2018-06-30T01:05:54.899Z,95
2018-06-30T01:06:54.335Z,95
2018-06-30T01:08:08.410Z,95
2018-06-30T01:09:57.423Z,95
2018-06-30T01:11:03.054Z,95
2018-06-30T01:11:51.917Z,95
2018-06-30T01:12:47.518Z,95
2018-06-30T01:13:45.513Z,95
2018-06-30T01:14:48.306Z,95
2018-06-30T01:15:55.843Z,95
2018-06-30T01:16:45.604Z,95
2018-06-30T01:17:47.937Z,95
2018-06-30T01:18:45.715Z,95
2018-06-30T01:21:27.754Z,95
2018-06-30T01:21:42.057Z,95
2018-06-30T01:22:38.227Z,95
2018-06-30T01:23:41.228Z,95
2018-06-30T01:24:38.246Z,95
2018-06-30T01:25:38.278Z,95
2018-06-30T01:27:38.785Z,95
2018-06-30T01:29:38.249Z,95
2018-06-30T01:31:51.612Z,95
2018-06-30T01:32:50.808Z,95
2018-06-30T01:33:50.830Z,95
2018-06-30T01:34:50.768Z,95
2018-06-30T01:35:50.994Z,95
2018-06-30T01:36:50.964Z,95
2018-06-30T01:37:59.558Z,95
2018-06-30T01:38:57.156Z,95
2018-06-30T01:39:54.231Z,95
2018-06-30T01:40:56.910Z,96
2018-06-30T01:42:08.975Z,96
2018-06-30T01:42:53.129Z,95
2018-06-30T01:43:51.037Z,95
2018-06-30T01:44:51.522Z,95
2018-06-30T01:45:50.963Z,95
2018-06-30T01:46:51.563Z,95
2018-06-30T01:47:51.516Z,95
2018-06-30T01:48:51.161Z,95
2018-06-30T01:49:51.913Z,95
2018-06-30T01:50:50.941Z,96
2018-06-30T01:53:54.937Z,96
2018-06-30T01:54:55.443Z,96
2018-06-30T01:55:59.966Z,96
2018-06-30T01:56:58.201Z,96
2018-06-30T01:57:58.547Z,96
2018-06-30T01:59:02.278Z,96
2018-06-30T01:59:55.662Z,96
2018-06-30T02:00:59.448Z,96
2018-06-30T02:02:01.008Z,96
2018-06-30T02:03:01.862Z,96
2018-06-30T02:05:17.999Z,96
2018-06-30T02:06:13.562Z,96
2018-06-30T02:08:14.965Z,96
2018-06-30T02:09:09.758Z,96
2018-06-30T02:10:11.000Z,96
2018-06-30T02:11:17.817Z,96
2018-06-30T02:12:09.698Z,96
2018-06-30T02:14:28.550Z,96
2018-06-30T02:15:11.224Z,96
2018-06-30T02:16:13.874Z,96
2018-06-30T02:17:15.852Z,96
2018-06-30T02:18:12.062Z,96
2018-06-30T02:19:10.029Z,96
2018-06-30T02:20:12.558Z,96
2018-06-30T02:23:14.087Z,96
2018-06-30T02:24:14.564Z,96
2018-06-30T02:26:30.090Z,96
2018-06-30T02:27:22.986Z,96
2018-06-30T02:28:23.163Z,96
2018-06-30T02:29:21.248Z,96
2018-06-30T02:30:21.315Z,96
2018-06-30T02:31:24.359Z,96
2018-06-30T02:32:21.340Z,96
2018-06-30T02:33:21.240Z,96
2018-06-30T02:34:21.392Z,96
2018-06-30T02:35:21.435Z,96
2018-06-30T02:36:37.366Z,96
2018-06-30T02:37:21.871Z,96
2018-06-30T02:38:22.737Z,96
2018-06-30T02:39:21.365Z,96
2018-06-30T02:40:23.909Z,96
2018-06-30T02:41:21.330Z,96
2018-06-30T02:42:21.829Z,96
2018-06-30T02:43:21.448Z,96
2018-06-30T02:44:22.785Z,96
2018-06-30T02:45:21.174Z,96
2018-06-30T02:46:21.814Z,96
2018-06-30T02:47:21.411Z,96
2018-06-30T02:48:21.916Z,96
2018-06-30T02:49:21.356Z,96
2018-06-30T02:50:21.260Z,96
2018-06-30T02:51:21.279Z,96
2018-06-30T02:52:22.480Z,96
2018-06-30T02:53:21.521Z,96
2018-06-30T02:54:21.940Z,96
2018-06-30T02:55:22.260Z,96
2018-06-30T02:56:21.939Z,96
2018-06-30T02:57:21.882Z,96
2018-06-30T02:58:21.461Z,96
2018-06-30T02:59:22.633Z,96
2018-06-30T03:00:21.372Z,96
2018-06-30T03:01:21.234Z,96
2018-06-30T03:02:21.386Z,96
2018-06-30T03:03:21.380Z,96
2018-06-30T03:04:21.343Z,96
2018-06-30T03:05:21.257Z,96
2018-06-30T03:06:21.442Z,96
2018-06-30T03:07:21.301Z,96
2018-06-30T03:08:21.356Z,96
2018-06-30T03:09:21.341Z,96
2018-06-30T03:10:22.194Z,96
2018-06-30T03:11:21.414Z,96
2018-06-30T03:12:21.385Z,97
2018-06-30T03:15:02.492Z,97
2018-06-30T03:15:14.802Z,97
2018-06-30T03:16:19.686Z,96
2018-06-30T03:17:14.529Z,97
2018-06-30T03:18:15.122Z,97
2018-06-30T03:19:14.565Z,97
2018-06-30T03:20:15.331Z,97
2018-06-30T03:21:14.602Z,97
2018-06-30T03:22:15.212Z,97
2018-06-30T03:23:15.229Z,97
2018-06-30T03:24:19.179Z,97
2018-06-30T03:25:14.526Z,97
2018-06-30T03:26:14.503Z,97
2018-06-30T03:27:15.896Z,97
2018-06-30T03:28:14.609Z,97
2018-06-30T03:29:14.516Z,97
2018-06-30T03:30:14.561Z,97
2018-06-30T03:31:16.750Z,97
2018-06-30T03:32:15.135Z,97
2018-06-30T03:33:14.576Z,97
2018-06-30T03:34:14.672Z,97
2018-06-30T03:35:15.223Z,97
2018-06-30T03:36:14.509Z,97
2018-06-30T03:37:14.661Z,97
2018-06-30T03:38:14.488Z,97
2018-06-30T03:39:14.445Z,97
2018-06-30T03:40:14.468Z,97
2018-06-30T03:41:30.828Z,97
2018-06-30T03:42:15.185Z,97
2018-06-30T03:43:14.508Z,97
2018-06-30T03:44:15.175Z,97
2018-06-30T03:45:14.666Z,97
2018-06-30T03:46:14.589Z,97
2018-06-30T03:47:15.368Z,97
2018-06-30T03:48:14.480Z,97
2018-06-30T03:49:14.622Z,97
2018-06-30T03:50:14.563Z,97
2018-06-30T03:51:15.309Z,97
2018-06-30T03:52:14.608Z,97
2018-06-30T03:53:15.317Z,97
2018-06-30T03:54:14.558Z,97
2018-06-30T03:55:14.566Z,97
2018-06-30T03:56:14.729Z,97
2018-06-30T03:58:14.603Z,97
2018-06-30T03:59:15.203Z,97
2018-06-30T04:00:14.653Z,97
2018-06-30T04:01:15.645Z,97
2018-06-30T04:02:14.615Z,97
2018-06-30T04:03:14.534Z,97
2018-06-30T04:04:14.604Z,97
2018-06-30T04:05:15.324Z,97
2018-06-30T04:06:14.763Z,97
2018-06-30T04:07:14.597Z,97
2018-06-30T04:08:14.536Z,97
2018-06-30T04:09:23.238Z,97
2018-06-30T04:10:15.196Z,97
2018-06-30T04:11:15.090Z,97
2018-06-30T04:12:14.635Z,97
2018-06-30T04:13:14.500Z,97
2018-06-30T04:14:14.589Z,97
2018-06-30T04:15:14.559Z,97
2018-06-30T04:16:14.547Z,97
2018-06-30T04:17:14.595Z,97
2018-06-30T04:18:14.604Z,97
2018-06-30T04:19:14.640Z,97
2018-06-30T04:20:14.588Z,97
2018-06-30T04:23:23.788Z,97
2018-06-30T04:24:24.796Z,97
2018-06-30T04:25:24.819Z,97
2018-06-30T04:26:24.846Z,97
2018-06-30T04:27:24.829Z,97
2018-06-30T04:28:24.832Z,97
2018-06-30T04:29:24.720Z,97
2018-06-30T04:30:25.347Z,97
2018-06-30T04:31:24.910Z,97
2018-06-30T04:32:24.783Z,97
2018-06-30T04:33:25.547Z,97
2018-06-30T04:34:24.744Z,97
2018-06-30T04:35:24.777Z,97
2018-06-30T04:36:24.853Z,97
2018-06-30T04:37:24.720Z,97
2018-06-30T04:38:24.897Z,97
2018-06-30T04:39:24.859Z,97
2018-06-30T04:40:25.717Z,97
2018-06-30T04:41:25.539Z,97
2018-06-30T04:42:24.989Z,97
2018-06-30T04:43:24.858Z,97
2018-06-30T04:44:24.809Z,97
2018-06-30T04:45:24.932Z,97
2018-06-30T04:46:25.099Z,97
2018-06-30T04:47:25.651Z,97
2018-06-30T04:48:24.780Z,97
2018-06-30T04:49:24.883Z,97
2018-06-30T04:50:29.791Z,97
2018-06-30T04:51:26.177Z,97
2018-06-30T04:52:29.349Z,97
2018-06-30T04:53:27.924Z,97
2018-06-30T04:54:39.371Z,97
2018-06-30T04:55:24.711Z,97
2018-06-30T04:56:24.817Z,96
2018-06-30T04:57:25.224Z,96
2018-06-30T04:58:24.927Z,96
2018-06-30T04:59:28.223Z,96
2018-06-30T05:00:24.732Z,96
2018-06-30T05:01:25.433Z,96
2018-06-30T05:02:24.738Z,96
2018-06-30T05:03:24.738Z,96
2018-06-30T05:04:25.375Z,96
2018-06-30T05:05:25.676Z,96
2018-06-30T05:06:25.533Z,96
2018-06-30T05:07:24.757Z,96
2018-06-30T05:08:26.044Z,96
2018-06-30T05:09:25.308Z,95
2018-06-30T05:10:24.870Z,95
2018-06-30T05:11:27.489Z,95
2018-06-30T05:12:27.704Z,95
2018-06-30T05:13:24.772Z,95
2018-06-30T05:14:24.647Z,96
2018-06-30T05:15:24.704Z,96
2018-06-30T05:16:34.447Z,95
2018-06-30T05:18:37.757Z,95
2018-06-30T05:19:27.161Z,94
2018-06-30T05:21:28.624Z,93
2018-06-30T05:22:24.657Z,93
2018-06-30T05:23:25.035Z,93
2018-06-30T05:24:24.725Z,93
2018-06-30T05:25:25.318Z,93
2018-06-30T05:26:24.759Z,93
2018-06-30T05:27:24.598Z,91
2018-06-30T05:28:24.624Z,91
2018-06-30T05:29:24.604Z,88
2018-06-30T05:30:24.677Z,88
2018-06-30T05:31:24.679Z,88
2018-06-30T05:32:30.680Z,87
2018-06-30T05:33:25.459Z,87
2018-06-30T05:34:29.746Z,85
2018-06-30T05:35:25.895Z,85
2018-06-30T05:36:41.798Z,85
2018-06-30T05:37:40.217Z,83
2018-06-30T05:38:26.389Z,83
2018-06-30T05:39:27.200Z,83
2018-06-30T05:40:25.839Z,83
2018-06-30T05:41:24.788Z,83
2018-06-30T05:42:24.637Z,81
2018-06-30T05:43:25.555Z,81
2018-06-30T05:44:24.758Z,79
2018-06-30T05:45:25.280Z,79
2018-06-30T05:46:27.150Z,79
2018-06-30T05:47:27.277Z,79
2018-06-30T05:48:25.382Z,79
2018-06-30T05:49:31.181Z,77
2018-06-30T05:50:29.278Z,77
2018-06-30T05:51:27.997Z,77
2018-06-30T05:53:34.231Z,75
2018-06-30T05:54:37.948Z,74
2018-06-30T05:56:36.373Z,74
2018-06-30T05:57:35.357Z,74
2018-06-30T05:58:33.807Z,74
2018-06-30T05:59:35.240Z,74
2018-06-30T06:00:31.138Z,74
2018-06-30T06:01:34.138Z,74
2018-06-30T06:02:29.824Z,73
2018-06-30T06:03:32.968Z,73
2018-06-30T06:04:26.623Z,73
2018-06-30T06:05:37.911Z,73
2018-06-30T06:06:35.808Z,73
2018-06-30T06:07:27.253Z,69
2018-06-30T06:08:25.927Z,69
2018-06-30T06:09:31.035Z,69
2018-06-30T06:10:24.892Z,69
2018-06-30T06:12:27.000Z,70
2018-06-30T06:15:43.349Z,69
2018-06-30T06:16:33.410Z,69
2018-06-30T06:17:48.023Z,70
2018-06-30T06:19:06.049Z,70
2018-06-30T06:19:56.488Z,70
2018-06-30T06:20:45.734Z,68
2018-06-30T06:22:36.454Z,66
2018-06-30T06:24:42.477Z,66
2018-06-30T06:25:39.017Z,65
2018-06-30T06:26:36.601Z,65
2018-06-30T06:27:30.030Z,65
2018-06-30T06:28:47.538Z,62
2018-06-30T06:29:45.587Z,62
2018-06-30T06:30:32.780Z,62
2018-06-30T06:31:36.388Z,62
2018-06-30T06:32:39.786Z,62
2018-06-30T06:33:38.300Z,61
2018-06-30T06:34:35.654Z,61
2018-06-30T06:35:40.025Z,61
2018-06-30T06:36:30.029Z,61
2018-06-30T06:38:31.754Z,60
2018-06-30T06:39:25.134Z,60
2018-06-30T06:40:25.681Z,59
2018-06-30T06:41:24.983Z,59
2018-06-30T06:42:25.048Z,59
2018-06-30T06:43:37.344Z,59
2018-06-30T06:44:25.060Z,59
2018-06-30T06:45:25.159Z,59
2018-06-30T06:46:24.898Z,59
2018-06-30T06:47:25.473Z,59
2018-06-30T06:48:25.800Z,59
2018-06-30T06:50:25.638Z,58
2018-06-30T06:51:26.425Z,58
2018-06-30T06:52:25.089Z,58
2018-06-30T06:53:25.623Z,58
2018-06-30T06:54:25.009Z,58
2018-06-30T06:55:25.076Z,59
2018-06-30T06:56:25.188Z,59
2018-06-30T06:57:25.068Z,59
2018-06-30T06:58:35.080Z,59
2018-06-30T06:59:25.597Z,59
2018-06-30T07:00:24.968Z,59
2018-06-30T07:01:25.206Z,59
2018-06-30T07:02:25.093Z,59
2018-06-30T07:03:25.024Z,58
2018-06-30T07:04:29.083Z,58
2018-06-30T07:05:26.456Z,58
2018-06-30T07:06:25.047Z,58
2018-06-30T07:07:25.753Z,58
2018-06-30T07:08:53.314Z,59
2018-06-30T07:09:25.099Z,59
2018-06-30T07:10:25.263Z,59
2018-06-30T07:11:25.737Z,58
2018-06-30T07:12:25.723Z,58
2018-06-30T07:13:25.045Z,57
2018-06-30T07:14:25.165Z,57
2018-06-30T07:15:25.054Z,57
2018-06-30T07:16:25.084Z,57
2018-06-30T07:17:25.075Z,57
2018-06-30T07:18:25.220Z,59
2018-06-30T07:19:25.262Z,59
2018-06-30T07:20:29.757Z,59
2018-06-30T07:22:02.387Z,58
2018-06-30T07:22:29.843Z,58
2018-06-30T07:24:02.645Z,59
2018-06-30T07:24:26.808Z,59
2018-06-30T07:25:25.062Z,59
2018-06-30T07:27:24.968Z,59
2018-06-30T07:28:25.725Z,59
2018-06-30T07:29:26.080Z,58
2018-06-30T07:30:24.958Z,58
2018-06-30T07:31:25.572Z,57
2018-06-30T07:32:25.260Z,57
2018-06-30T07:33:25.593Z,57
2018-06-30T07:34:25.066Z,58
2018-06-30T07:35:25.087Z,58
2018-06-30T07:36:25.016Z,57
2018-06-30T07:37:25.742Z,57
2018-06-30T07:38:53.528Z,57
2018-06-30T07:39:24.977Z,57
2018-06-30T07:40:25.056Z,57
2018-06-30T07:41:25.088Z,57
2018-06-30T07:42:25.747Z,57
2018-06-30T07:43:25.043Z,57
2018-06-30T07:44:25.246Z,57
2018-06-30T07:45:25.764Z,57
2018-06-30T07:46:25.099Z,55
2018-06-30T07:47:25.078Z,55
2018-06-30T07:48:25.668Z,55
2018-06-30T07:51:12.919Z,57
2018-06-30T07:51:37.749Z,55
2018-06-30T07:52:37.683Z,55
2018-06-30T07:53:37.774Z,55
2018-06-30T07:54:37.803Z,55
2018-06-30T07:55:37.797Z,55
2018-06-30T07:56:37.824Z,55
2018-06-30T07:57:37.839Z,55
2018-06-30T07:58:37.847Z,55
2018-06-30T07:59:38.463Z,55
2018-06-30T08:00:39.937Z,55
2018-06-30T08:01:37.746Z,55
2018-06-30T08:02:37.722Z,55
2018-06-30T08:03:38.746Z,55
2018-06-30T08:04:38.445Z,55
2018-06-30T08:05:37.820Z,55
2018-06-30T08:06:37.909Z,55
2018-06-30T08:07:37.709Z,55
2018-06-30T08:08:38.882Z,55
2018-06-30T08:09:40.007Z,57
2018-06-30T08:10:37.822Z,57
2018-06-30T08:11:37.864Z,57
2018-06-30T08:12:37.876Z,57
2018-06-30T08:13:37.936Z,57
2018-06-30T08:14:37.875Z,55
2018-06-30T08:15:37.912Z,55
2018-06-30T08:16:39.317Z,55
2018-06-30T08:17:37.827Z,55
2018-06-30T08:18:37.922Z,55
2018-06-30T08:19:37.826Z,54
2018-06-30T08:20:38.942Z,54
2018-06-30T08:21:37.905Z,54
2018-06-30T08:22:38.458Z,54
2018-06-30T08:23:38.354Z,54
2018-06-30T08:24:38.421Z,55
2018-06-30T08:25:38.580Z,55
2018-06-30T08:26:37.872Z,55
2018-06-30T08:27:37.908Z,54
2018-06-30T08:28:37.857Z,54
2018-06-30T08:29:37.987Z,54
2018-06-30T08:30:38.806Z,54
2018-06-30T08:31:37.878Z,54
2018-06-30T08:32:37.847Z,53
2018-06-30T08:33:37.835Z,53
2018-06-30T08:34:38.953Z,52
2018-06-30T08:35:37.836Z,52
2018-06-30T08:36:38.744Z,52
2018-06-30T08:37:37.939Z,53
2018-06-30T08:38:37.994Z,53
2018-06-30T08:39:38.020Z,53
2018-06-30T08:40:38.590Z,53
2018-06-30T08:41:38.041Z,53
2018-06-30T08:42:37.982Z,52
2018-06-30T08:43:38.995Z,52
2018-06-30T08:44:38.007Z,52
2018-06-30T08:45:37.884Z,53
2018-06-30T08:46:37.829Z,53
2018-06-30T08:47:37.893Z,53
2018-06-30T08:48:38.561Z,53
2018-06-30T08:49:37.965Z,53
2018-06-30T08:50:38.018Z,53
2018-06-30T08:51:38.055Z,53
2018-06-30T08:52:37.993Z,52
2018-06-30T08:53:37.950Z,52
2018-06-30T08:54:38.088Z,52
2018-06-30T08:55:38.104Z,52
2018-06-30T08:56:37.933Z,52
2018-06-30T08:57:37.917Z,52
2018-06-30T08:58:38.009Z,52
2018-06-30T08:59:37.935Z,52
2018-06-30T09:00:38.086Z,53
2018-06-30T09:01:37.851Z,53
2018-06-30T09:02:37.850Z,53
2018-06-30T09:03:38.604Z,53
2018-06-30T09:04:38.044Z,53
2018-06-30T09:05:37.885Z,52
2018-06-30T09:06:37.978Z,52
2018-06-30T09:07:37.902Z,53
2018-06-30T09:08:37.895Z,53
2018-06-30T09:09:37.902Z,53
2018-06-30T09:10:37.976Z,52
2018-06-30T09:11:38.041Z,52
2018-06-30T09:12:37.844Z,52
2018-06-30T09:13:37.925Z,51
2018-06-30T09:14:37.952Z,51
2018-06-30T09:15:37.898Z,52
2018-06-30T09:16:37.904Z,52
2018-06-30T09:17:37.941Z,52
2018-06-30T09:18:37.866Z,52
2018-06-30T09:19:38.618Z,52
2018-06-30T09:20:37.847Z,51
2018-06-30T09:21:37.872Z,51
2018-06-30T09:22:37.911Z,51
2018-06-30T09:23:37.895Z,51
2018-06-30T09:24:37.828Z,51
2018-06-30T09:25:37.866Z,51
2018-06-30T09:26:37.906Z,51
2018-06-30T09:27:37.942Z,51
2018-06-30T09:28:39.596Z,51
2018-06-30T09:29:37.951Z,51
2018-06-30T09:30:38.017Z,52
2018-06-30T09:31:37.915Z,52
2018-06-30T09:32:38.657Z,52
2018-06-30T09:34:14.674Z,51
2018-06-30T09:34:37.953Z,51
2018-06-30T09:35:37.930Z,52
2018-06-30T09:36:37.856Z,52
2018-06-30T09:37:37.865Z,52
2018-06-30T09:38:37.967Z,50
2018-06-30T09:39:37.879Z,50
2018-06-30T09:40:37.927Z,50
2018-06-30T09:41:37.972Z,50
2018-06-30T09:42:37.885Z,50
2018-06-30T09:43:38.657Z,50
2018-06-30T09:44:39.197Z,50
2018-06-30T09:45:38.007Z,50
2018-06-30T09:46:38.048Z,50
2018-06-30T09:47:37.963Z,50
2018-06-30T09:48:37.995Z,51
2018-06-30T09:49:37.969Z,51
2018-06-30T09:50:37.965Z,51
2018-06-30T09:51:38.064Z,51
2018-06-30T09:52:37.916Z,51
2018-06-30T09:53:38.012Z,50
2018-06-30T09:54:48.239Z,50
2018-06-30T09:55:37.922Z,50
2018-06-30T09:56:37.976Z,50
2018-06-30T09:57:38.417Z,50
2018-06-30T09:58:37.981Z,48
2018-06-30T09:59:38.562Z,48
2018-06-30T10:00:39.048Z,48
2018-06-30T10:01:37.925Z,49
2018-06-30T10:02:37.941Z,49
2018-06-30T10:03:37.957Z,49
2018-06-30T10:05:38.703Z,49
2018-06-30T10:06:39.711Z,49
2018-06-30T10:07:38.593Z,49
2018-06-30T10:08:37.970Z,49
2018-06-30T10:09:38.607Z,49
2018-06-30T10:10:38.023Z,49
2018-06-30T10:11:38.104Z,48
2018-06-30T10:12:38.042Z,48
2018-06-30T10:13:38.091Z,48
2018-06-30T10:14:37.923Z,48
2018-06-30T10:15:38.021Z,48
2018-06-30T10:16:37.975Z,48
2018-06-30T10:17:38.065Z,48
2018-06-30T10:18:38.487Z,48
2018-06-30T10:19:38.061Z,50
2018-06-30T10:20:38.028Z,50
2018-06-30T10:21:38.688Z,50
2018-06-30T10:22:38.035Z,50
2018-06-30T10:23:38.823Z,50
2018-06-30T10:24:38.029Z,49
2018-06-30T10:25:38.097Z,49
2018-06-30T10:26:38.105Z,49
2018-06-30T10:27:40.019Z,49
2018-06-30T10:28:38.111Z,49
2018-06-30T10:29:37.946Z,50
2018-06-30T10:30:38.076Z,50
2018-06-30T10:31:38.052Z,50
2018-06-30T10:32:38.145Z,50
2018-06-30T10:33:38.034Z,50
2018-06-30T10:34:39.398Z,50
2018-06-30T10:35:39.053Z,50
2018-06-30T10:36:38.010Z,50
2018-06-30T10:37:38.134Z,50
2018-06-30T10:39:38.005Z,50
2018-06-30T10:40:38.015Z,50
2018-06-30T10:41:38.196Z,52
2018-06-30T10:42:38.085Z,52
2018-06-30T10:43:38.109Z,52
2018-06-30T10:44:38.108Z,51
2018-06-30T10:45:38.141Z,51
2018-06-30T10:46:39.118Z,51
2018-06-30T10:47:38.063Z,50
2018-06-30T10:48:38.041Z,50
2018-06-30T10:49:38.072Z,50
2018-06-30T10:50:38.130Z,50
2018-06-30T10:51:38.055Z,50
2018-06-30T10:52:38.058Z,48
2018-06-30T10:53:38.110Z,48
2018-06-30T10:54:38.020Z,50
2018-06-30T10:55:38.063Z,50
2018-06-30T10:56:38.198Z,50
2018-06-30T10:57:38.589Z,50
2018-06-30T10:58:38.847Z,50
2018-06-30T10:59:38.179Z,50
2018-06-30T11:00:39.387Z,50
2018-06-30T11:01:48.290Z,50
2018-06-30T11:02:38.170Z,50
2018-06-30T11:03:38.182Z,50
2018-06-30T11:04:38.136Z,51
2018-06-30T11:05:38.100Z,51
2018-06-30T11:06:38.455Z,51
2018-06-30T11:07:38.145Z,50
2018-06-30T11:08:38.335Z,50
2018-06-30T11:09:38.246Z,49
2018-06-30T11:10:38.497Z,49
2018-06-30T11:11:38.183Z,49
2018-06-30T11:12:38.198Z,48
2018-06-30T11:13:38.274Z,48
2018-06-30T11:14:39.014Z,48
2018-06-30T11:15:39.833Z,49
2018-06-30T11:16:38.213Z,49
2018-06-30T11:17:38.979Z,48
2018-06-30T11:18:38.156Z,48
2018-06-30T11:19:38.089Z,48
2018-06-30T11:20:38.043Z,49
2018-06-30T11:21:38.090Z,49
2018-06-30T11:22:38.108Z,48
2018-06-30T11:23:38.147Z,48
2018-06-30T11:24:38.138Z,48
2018-06-30T11:25:38.093Z,49
2018-06-30T11:26:38.167Z,49
2018-06-30T11:27:38.095Z,47
2018-06-30T11:28:38.780Z,47
2018-06-30T11:29:38.239Z,47
2018-06-30T11:30:39.063Z,47
2018-06-30T11:31:38.817Z,47
2018-06-30T11:32:38.199Z,48
2018-06-30T11:33:38.073Z,48
2018-06-30T11:34:38.797Z,48
2018-06-30T11:35:38.155Z,47
2018-06-30T11:36:38.161Z,47
2018-06-30T11:37:38.825Z,46
2018-06-30T11:38:38.798Z,46
2018-06-30T11:39:38.088Z,46
2018-06-30T11:40:38.216Z,46
2018-06-30T11:41:38.193Z,46
2018-06-30T11:42:38.291Z,46
2018-06-30T11:43:38.186Z,46
2018-06-30T11:44:38.878Z,46
2018-06-30T11:45:38.147Z,47
2018-06-30T11:46:38.222Z,47
2018-06-30T11:47:39.339Z,47
2018-06-30T11:49:38.276Z,51
2018-06-30T11:50:38.169Z,50
2018-06-30T11:51:38.162Z,50
2018-06-30T11:52:38.268Z,50
2018-06-30T11:53:38.292Z,50
2018-06-30T11:54:38.473Z,50
2018-06-30T11:55:38.360Z,51
2018-06-30T11:56:38.468Z,51
2018-06-30T11:57:39.077Z,51
2018-06-30T11:58:38.286Z,48
2018-06-30T11:59:38.464Z,48
2018-06-30T12:00:38.956Z,48
2018-06-30T12:01:38.470Z,48
2018-06-30T12:02:38.348Z,48
2018-06-30T12:03:38.325Z,49
2018-06-30T12:04:38.327Z,49
2018-06-30T12:06:39.720Z,46
2018-06-30T12:07:38.795Z,46
2018-06-30T12:08:38.230Z,48
2018-06-30T12:09:38.307Z,48
2018-06-30T12:10:38.504Z,48
2018-06-30T12:11:39.794Z,48
2018-06-30T12:12:38.673Z,48
2018-06-30T12:13:38.850Z,49
2018-06-30T12:14:38.283Z,49
2018-06-30T12:15:38.978Z,49
2018-06-30T12:16:39.036Z,47
2018-06-30T12:18:02.134Z,47
2018-06-30T12:18:52.621Z,48
2018-06-30T12:19:38.287Z,48
2018-06-30T12:20:38.240Z,48
2018-06-30T12:21:39.181Z,48
2018-06-30T12:22:39.081Z,48
2018-06-30T12:23:39.033Z,49
2018-06-30T12:24:39.107Z,49
2018-06-30T12:33:55.792Z,49
2018-06-30T12:34:56.957Z,48
2018-06-30T12:35:56.933Z,48
2018-06-30T12:36:56.935Z,47
2018-06-30T12:37:57.002Z,47
2018-06-30T12:38:57.923Z,46
2018-06-30T12:39:57.572Z,46
2018-06-30T12:40:56.898Z,46
2018-06-30T12:41:56.929Z,45
2018-06-30T12:43:12.024Z,45
2018-06-30T12:44:08.789Z,49
2018-06-30T12:44:57.598Z,49
2018-06-30T12:45:59.863Z,49
2018-06-30T12:46:56.908Z,47
2018-06-30T12:47:56.900Z,47
2018-06-30T12:48:56.890Z,47
2018-06-30T12:49:58.266Z,47
2018-06-30T12:50:56.867Z,47
2018-06-30T12:51:56.930Z,47
2018-06-30T12:52:57.521Z,47
2018-06-30T12:54:00.236Z,49
2018-06-30T12:54:57.054Z,49
2018-06-30T12:55:56.908Z,49
2018-06-30T12:57:13.569Z,48
2018-06-30T12:57:56.904Z,48
2018-06-30T12:58:56.892Z,47
2018-06-30T12:59:56.901Z,47
2018-06-30T13:01:07.305Z,47
2018-06-30T13:02:31.160Z,48
2018-06-30T13:02:56.956Z,48
2018-06-30T13:03:56.973Z,48
2018-06-30T13:04:58.939Z,48
2018-06-30T13:05:57.519Z,48
2018-06-30T13:06:56.873Z,48
2018-06-30T13:07:56.896Z,48
2018-06-30T13:08:59.221Z,48
2018-06-30T13:10:00.651Z,46
2018-06-30T13:10:56.943Z,46
2018-06-30T13:11:57.021Z,48
2018-06-30T13:12:56.922Z,48
2018-06-30T13:13:57.036Z,48
2018-06-30T13:14:57.489Z,47
2018-06-30T13:16:08.412Z,47
2018-06-30T13:16:57.090Z,47
2018-06-30T13:17:57.586Z,47
2018-06-30T13:20:05.964Z,46
2018-06-30T13:21:57.165Z,46
2018-06-30T13:22:10.448Z,46
2018-06-30T13:23:11.567Z,46
2018-06-30T13:24:11.460Z,46
2018-06-30T13:25:11.464Z,45
2018-06-30T13:26:11.445Z,45
2018-06-30T13:27:11.538Z,44
2018-06-30T13:28:11.555Z,44
2018-06-30T13:30:24.318Z,45
2018-06-30T13:31:24.347Z,45
2018-06-30T13:32:24.250Z,45
2018-06-30T13:33:24.975Z,45
2018-06-30T13:34:24.438Z,45
2018-06-30T13:36:24.387Z,44
2018-06-30T13:37:29.389Z,46
2018-06-30T13:39:27.031Z,46
2018-06-30T13:41:30.612Z,45
2018-06-30T13:41:42.332Z,45
2018-06-30T13:42:46.404Z,46
2018-06-30T13:43:44.993Z,46
2018-06-30T13:44:56.094Z,46
2018-06-30T13:46:25.502Z,46
2018-06-30T13:46:39.884Z,46
2018-06-30T13:47:41.232Z,46
2018-06-30T13:48:39.868Z,46
2018-06-30T13:49:40.361Z,46
2018-06-30T13:50:39.855Z,45
2018-06-30T13:51:39.887Z,45
2018-06-30T13:52:39.858Z,45
2018-06-30T13:53:40.486Z,45
2018-06-30T13:54:39.852Z,45
2018-06-30T13:55:39.616Z,45
2018-06-30T13:56:39.634Z,45
2018-06-30T13:57:43.982Z,45
2018-06-30T13:58:42.016Z,45
2018-06-30T13:59:49.922Z,45
2018-06-30T14:00:55.563Z,44
2018-06-30T14:02:53.277Z,44
2018-06-30T14:03:41.932Z,44
2018-06-30T14:04:41.092Z,44
2018-06-30T14:05:43.371Z,44
2018-06-30T14:06:39.909Z,44
2018-06-30T14:07:50.299Z,44
2018-06-30T14:09:54.386Z,44
2018-06-30T14:10:54.106Z,45
2018-06-30T14:11:40.612Z,45
2018-06-30T14:12:47.708Z,45
2018-06-30T14:13:56.623Z,45
2018-06-30T14:14:43.159Z,45
2018-06-30T14:15:39.908Z,45
2018-06-30T14:16:41.388Z,45
2018-06-30T14:17:43.855Z,45
2018-06-30T14:18:43.111Z,44
2018-06-30T14:19:40.048Z,44
2018-06-30T14:20:39.907Z,45
2018-06-30T14:21:39.930Z,45
2018-06-30T14:22:40.001Z,45
2018-06-30T14:23:40.288Z,45
2018-06-30T14:24:43.723Z,45
2018-06-30T14:25:39.925Z,45
2018-06-30T14:26:40.613Z,45
2018-06-30T14:27:39.945Z,45
2018-06-30T14:28:41.451Z,44
2018-06-30T14:29:39.910Z,44
2018-06-30T14:30:43.473Z,45
2018-06-30T14:31:39.985Z,45
2018-06-30T14:32:40.140Z,45
2018-06-30T14:33:41.352Z,45
2018-06-30T14:34:41.835Z,45
2018-06-30T14:35:42.724Z,45
2018-06-30T14:36:40.628Z,45
2018-06-30T14:37:42.923Z,45
2018-06-30T14:38:40.778Z,44
2018-06-30T14:39:40.676Z,44
2018-06-30T14:40:40.039Z,43
2018-06-30T14:41:40.164Z,43
2018-06-30T14:42:40.138Z,43
2018-06-30T14:43:40.816Z,45
2018-06-30T14:44:39.970Z,45
2018-06-30T14:45:41.041Z,44
2018-06-30T14:47:42.175Z,44
2018-06-30T14:48:40.362Z,43
2018-06-30T14:49:40.186Z,43
2018-06-30T14:50:40.131Z,43
2018-06-30T14:51:39.996Z,45
2018-06-30T14:52:40.376Z,45
2018-06-30T14:53:40.110Z,45
2018-06-30T14:54:39.879Z,45
2018-06-30T14:55:43.180Z,45
2018-06-30T14:56:40.909Z,44
2018-06-30T14:57:40.345Z,44
2018-06-30T14:58:40.017Z,44
2018-06-30T14:59:39.992Z,44
2018-06-30T15:00:39.946Z,44
2018-06-30T15:01:39.953Z,42
2018-06-30T15:02:39.867Z,42
2018-06-30T15:03:39.785Z,42
2018-06-30T15:04:39.913Z,42
2018-06-30T15:05:39.906Z,42
2018-06-30T15:06:39.809Z,42
2018-06-30T15:07:40.539Z,42
2018-06-30T15:08:39.918Z,41
2018-06-30T15:09:39.890Z,41
2018-06-30T15:10:39.878Z,41
2018-06-30T15:11:39.776Z,42